Time;durP1;ratioP1;P1;durP2;ratioP2;P2;SDS_P1;SDS_P2;PMS_P1;PMS_P2;Temp;Humidity;BMP_temperature;BMP_pressure;BME280_temperature;BME280_humidity;BME280_pressure;Samples;Min_cycle;Max_cycle;Signal;HPM_P1;HPM_P2
2022/10/23 00:01:31;;;;;;;6.30;2.58;;;6.70;99.90;;;;;;5094562;28;20028;-52
2022/10/23 00:03:59;;;;;;;14.15;2.80;;;6.70;99.90;;;;;;5094434;28;20024;-50
2022/10/23 00:06:26;;;;;;;3.75;2.80;;;6.70;99.90;;;;;;5094331;28;20051;-50
2022/10/23 00:08:51;;;;;;;7.32;2.50;;;6.70;99.90;;;;;;5094613;28;20048;-50
2022/10/23 00:11:20;;;;;;;10.25;2.70;;;6.60;99.90;;;;;;5094940;28;20336;-51
2022/10/23 00:13:46;;;;;;;3.75;2.72;;;6.60;99.90;;;;;;5094587;28;20093;-51
2022/10/23 00:16:12;;;;;;;3.42;2.65;;;6.60;99.90;;;;;;5093623;28;20028;-50
2022/10/23 00:18:38;;;;;;;7.47;2.63;;;6.60;99.90;;;;;;5094981;28;20016;-50
2022/10/23 00:21:05;;;;;;;4.38;2.35;;;6.60;99.90;;;;;;5095076;28;20016;-52
2022/10/23 00:23:31;;;;;;;6.10;2.80;;;6.60;99.90;;;;;;5094622;28;20360;-50
2022/10/23 00:25:57;;;;;;;3.20;2.63;;;6.60;99.90;;;;;;5093235;28;20016;-51
2022/10/23 00:28:23;;;;;;;9.20;2.70;;;6.60;99.90;;;;;;5094713;28;20099;-52
2022/10/23 00:30:49;;;;;;;3.40;2.60;;;6.60;99.90;;;;;;5094954;28;20027;-52
2022/10/23 00:33:21;;;;;;;3.15;2.85;;;6.60;99.90;;;;;;5094107;28;20024;-51
2022/10/23 00:35:46;;;;;;;8.20;2.63;;;6.60;99.90;;;;;;5094295;28;20040;-52
2022/10/23 00:38:12;;;;;;;2.75;2.55;;;6.60;99.90;;;;;;5094509;28;20016;-51
2022/10/23 00:40:38;;;;;;;4.53;2.58;;;6.60;99.90;;;;;;5093278;28;20487;-50
2022/10/23 00:43:05;;;;;;;2.60;2.40;;;6.60;99.90;;;;;;5094354;28;20028;-51
2022/10/23 00:45:32;;;;;;;7.30;2.58;;;6.60;99.90;;;;;;5094356;28;20084;-51
2022/10/23 00:48:00;;;;;;;2.78;2.55;;;6.60;99.90;;;;;;5094562;28;20395;-50
2022/10/23 00:50:27;;;;;;;2.40;2.20;;;6.60;99.90;;;;;;5094234;28;20078;-50
2022/10/23 00:52:54;;;;;;;3.45;2.60;;;6.50;99.90;;;;;;5093955;28;20042;-50
2022/10/23 00:55:23;;;;;;;2.90;2.60;;;6.50;99.90;;;;;;5093951;28;20108;-51
2022/10/23 00:57:50;;;;;;;4.57;3.38;;;6.50;99.90;;;;;;5094155;28;20055;-51
2022/10/23 01:00:25;;;;;;;8.05;2.85;;;6.50;99.90;;;;;;5093936;28;20027;-51
2022/10/23 01:02:53;;;;;;;16.67;3.10;;;6.50;99.90;;;;;;5093752;28;20021;-50
2022/10/23 01:05:24;;;;;;;13.43;3.70;;;6.50;99.90;;;;;;5091828;28;20032;-50
2022/10/23 01:07:55;;;;;;;22.55;3.15;;;6.50;99.90;;;;;;5093977;28;20036;-52
2022/10/23 01:10:43;;;;;;;14.85;3.65;;;6.40;99.90;;;;;;5093983;28;20028;-49
2022/10/23 01:13:23;;;;;;;16.08;3.60;;;6.40;99.90;;;;;;5093469;28;20073;-50
2022/10/23 01:16:12;;;;;;;39.30;3.88;;;6.40;99.90;;;;;;5093908;28;20059;-52
2022/10/23 01:19:18;;;;;;;76.13;4.65;;;6.40;99.90;;;;;;5076607;28;20040;-49
2022/10/23 01:22:02;;;;;;;134.90;5.75;;;6.30;99.90;;;;;;5011931;28;20043;-50
2022/10/23 01:24:49;;;;;;;45.17;4.00;;;6.30;99.90;;;;;;5092641;28;20048;-51
2022/10/23 01:27:25;;;;;;;40.58;3.88;;;6.30;99.90;;;;;;5091638;28;20506;-54
2022/10/23 01:30:07;;;;;;;18.17;3.08;;;6.30;99.90;;;;;;5093609;28;20028;-50
2022/10/23 01:32:52;;;;;;;16.92;3.00;;;6.30;99.90;;;;;;5093696;28;20421;-51
2022/10/23 01:35:29;;;;;;;7.10;2.85;;;6.30;99.90;;;;;;5073125;28;20032;-51
2022/10/23 01:38:11;;;;;;;26.20;2.83;;;6.20;99.90;;;;;;5073268;28;20073;-51
2022/10/23 01:40:47;;;;;;;49.00;3.38;;;6.20;99.90;;;;;;5073148;28;20349;-49
2022/10/23 01:43:23;;;;;;;2.47;2.28;;;6.20;99.90;;;;;;5076134;28;20024;-50
2022/10/23 01:45:59;;;;;;;5.07;2.50;;;6.20;99.90;;;;;;5093275;28;20024;-52
2022/10/23 01:48:28;;;;;;;6.90;2.28;;;6.10;99.90;;;;;;5092831;28;20032;-51
2022/10/23 01:51:00;;;;;;;38.58;3.20;;;6.10;99.90;;;;;;5092965;28;20019;-54
2022/10/23 01:53:30;;;;;;;4.95;2.80;;;6.10;99.90;;;;;;5092710;28;20482;-50
2022/10/23 01:55:57;;;;;;;65.55;4.47;;;6.00;99.90;;;;;;5093141;28;20027;-50
2022/10/23 01:58:25;;;;;;;47.72;4.40;;;6.00;99.90;;;;;;5092820;28;20360;-53
2022/10/23 02:00:54;;;;;;;42.92;3.45;;;6.00;99.90;;;;;;5091757;28;20024;-50
2022/10/23 02:03:22;;;;;;;50.13;4.25;;;6.00;99.90;;;;;;5092623;28;20489;-50
2022/10/23 02:05:48;;;;;;;38.65;3.50;;;6.00;99.90;;;;;;5091883;28;20479;-49
2022/10/23 02:08:14;;;;;;;53.45;4.43;;;5.90;99.90;;;;;;5091218;28;20048;-50
2022/10/23 02:11:19;;;;;;;4.47;2.80;;;5.90;99.90;;;;;;5092755;28;20020;-50
2022/10/23 02:13:51;;;;;;;11.40;3.22;;;5.90;99.90;;;;;;5088405;28;20177;-50
2022/10/23 02:16:25;;;;;;;33.60;3.80;;;5.90;99.90;;;;;;5092545;28;20031;-50
2022/10/23 02:19:05;;;;;;;32.25;3.80;;;5.90;99.90;;;;;;5092675;28;20020;-50
2022/10/23 02:21:35;;;;;;;47.53;3.45;;;5.80;99.90;;;;;;5091134;28;20035;-50
2022/10/23 02:24:11;;;;;;;50.92;4.28;;;5.80;99.90;;;;;;5092238;28;20032;-51
2022/10/23 02:26:52;;;;;;;97.72;4.80;;;5.80;99.90;;;;;;5092637;28;20398;-50
2022/10/23 02:29:32;;;;;;;63.55;4.25;;;5.80;99.90;;;;;;5092296;28;20024;-53
2022/10/23 02:31:58;;;;;;;113.97;4.00;;;5.70;99.90;;;;;;5092367;28;20032;-54
2022/10/23 02:34:24;;;;;;;49.10;3.50;;;5.60;99.90;;;;;;5092029;28;20046;-51
2022/10/23 02:36:50;;;;;;;15.43;2.42;;;5.60;99.90;;;;;;5092462;28;20448;-50
2022/10/23 02:39:15;;;;;;;9.27;2.58;;;5.60;99.90;;;;;;5090861;28;20046;-50
2022/10/23 02:41:44;;;;;;;2.08;1.98;;;5.60;99.90;;;;;;5092285;28;20028;-51
2022/10/23 02:44:25;;;;;;;18.95;2.78;;;5.50;99.90;;;;;;5090506;28;20372;-51
2022/10/23 02:47:28;;;;;;;4.07;2.40;;;5.50;99.90;;;;;;5092198;28;20029;-50
2022/10/23 02:50:31;;;;;;;4.22;2.20;;;5.50;99.90;;;;;;5092187;28;20024;-50
2022/10/23 02:53:02;;;;;;;2.97;2.77;;;5.40;99.90;;;;;;5008369;28;20467;-50
2022/10/23 02:55:54;;;;;;;2.42;2.22;;;5.30;99.90;;;;;;5091253;28;20113;-50
2022/10/23 02:58:35;;;;;;;2.63;2.20;;;5.30;99.90;;;;;;5071658;28;20349;-51
2022/10/23 03:01:08;;;;;;;2.80;2.58;;;5.30;99.90;;;;;;5071756;28;20024;-51
2022/10/23 03:03:44;;;;;;;2.95;2.65;;;5.20;99.90;;;;;;5075823;28;20085;-51
2022/10/23 03:06:10;;;;;;;3.47;2.88;;;5.20;99.90;;;;;;5091670;28;20058;-50
2022/10/23 03:08:57;;;;;;;2.83;2.58;;;5.30;99.90;;;;;;5091777;28;20456;-52
2022/10/23 03:11:22;;;;;;;3.58;2.67;;;5.30;99.90;;;;;;5091623;28;20085;-50
2022/10/23 03:13:48;;;;;;;2.30;2.10;;;5.30;99.90;;;;;;5091475;28;20024;-51
2022/10/23 03:16:14;;;;;;;2.60;2.40;;;5.20;99.90;;;;;;5091445;28;20034;-50
2022/10/23 03:18:39;;;;;;;4.70;2.50;;;5.20;99.90;;;;;;5091810;28;20028;-50
2022/10/23 03:21:05;;;;;;;3.90;2.80;;;5.20;99.90;;;;;;5091617;28;20051;-54
2022/10/23 03:23:31;;;;;;;3.08;2.35;;;5.20;99.90;;;;;;5091420;28;20039;-51
2022/10/23 03:25:56;;;;;;;4.43;2.55;;;5.20;99.90;;;;;;5091552;28;20032;-54
2022/10/23 03:28:22;;;;;;;2.13;2.03;;;5.20;99.90;;;;;;5089730;28;20119;-49
2022/10/23 03:30:48;;;;;;;2.40;2.20;;;5.20;99.90;;;;;;5091623;28;20532;-50
2022/10/23 03:33:14;;;;;;;2.55;2.35;;;5.20;99.90;;;;;;5091250;28;20024;-51
2022/10/23 03:35:39;;;;;;;2.78;2.35;;;5.10;99.90;;;;;;5091021;28;20130;-51
2022/10/23 03:38:05;;;;;;;2.70;2.20;;;5.10;99.90;;;;;;5091459;28;20035;-51
2022/10/23 03:40:31;;;;;;;2.17;2.08;;;5.10;99.90;;;;;;5091489;28;20028;-51
2022/10/23 03:42:56;;;;;;;2.47;2.28;;;5.10;99.90;;;;;;5091488;28;20381;-49
2022/10/23 03:45:22;;;;;;;2.60;2.40;;;5.10;99.90;;;;;;5091166;28;20031;-50
2022/10/23 03:47:49;;;;;;;6.40;2.20;;;5.10;99.90;;;;;;5091446;28;20031;-49
2022/10/23 03:50:15;;;;;;;2.40;2.20;;;5.10;99.90;;;;;;5091225;28;20020;-52
2022/10/23 03:52:40;;;;;;;1.90;1.80;;;5.10;99.90;;;;;;5091490;28;20376;-51
2022/10/23 03:55:07;;;;;;;2.45;1.92;;;5.00;99.90;;;;;;5090860;28;20028;-51
2022/10/23 03:57:32;;;;;;;7.63;2.08;;;5.00;99.90;;;;;;5091353;28;20024;-49
2022/10/23 03:59:58;;;;;;;2.35;2.25;;;5.00;99.90;;;;;;5091300;28;20565;-51
2022/10/23 04:02:24;;;;;;;3.00;2.33;;;5.00;99.90;;;;;;5091125;28;20101;-50
2022/10/23 04:04:49;;;;;;;4.20;2.10;;;4.90;99.90;;;;;;5091212;28;20077;-51
2022/10/23 04:07:20;;;;;;;2.25;2.05;;;4.90;99.90;;;;;;5089899;28;20024;-49
2022/10/23 04:09:46;;;;;;;3.65;2.00;;;4.90;99.90;;;;;;5091062;28;20048;-49
2022/10/23 04:12:11;;;;;;;2.35;2.10;;;4.80;99.90;;;;;;5091062;28;20467;-50
2022/10/23 04:14:37;;;;;;;2.55;2.13;;;4.90;99.90;;;;;;5091008;28;20028;-54
2022/10/23 04:17:03;;;;;;;2.33;2.22;;;4.90;99.90;;;;;;5091089;28;20409;-51
2022/10/23 04:19:28;;;;;;;4.82;1.90;;;4.90;99.90;;;;;;5091036;28;20055;-51
2022/10/23 04:21:55;;;;;;;2.72;2.28;;;5.00;99.90;;;;;;5091093;28;20032;-50
2022/10/23 04:24:23;;;;;;;6.75;2.45;;;5.10;99.90;;;;;;5090572;28;20066;-51
2022/10/23 04:26:48;;;;;;;10.60;2.05;;;5.20;99.90;;;;;;5091005;28;20034;-52
2022/10/23 04:29:22;;;;;;;15.23;3.13;;;5.40;99.90;;;;;;5091165;28;20020;-50
2022/10/23 04:31:48;;;;;;;41.00;3.97;;;5.50;99.90;;;;;;5091144;28;20024;-50
2022/10/23 04:34:14;;;;;;;8.50;3.60;;;5.60;99.90;;;;;;5089367;28;20035;-50
2022/10/23 04:36:39;;;;;;;77.35;6.13;;;5.70;99.90;;;;;;5091090;28;20032;-50
2022/10/23 04:39:05;;;;;;;14.45;4.25;;;5.80;99.90;;;;;;5090849;28;20080;-52
2022/10/23 04:41:31;;;;;;;88.63;6.18;;;5.90;99.90;;;;;;5094089;28;20028;-50
2022/10/23 04:43:57;;;;;;;108.38;5.85;;;6.00;99.90;;;;;;5094398;28;20032;-50
2022/10/23 04:46:22;;;;;;;107.30;6.57;;;6.10;99.90;;;;;;5094352;28;20028;-50
2022/10/23 04:48:48;;;;;;;143.80;7.82;;;6.20;99.90;;;;;;5094553;28;20056;-50
2022/10/23 04:51:14;;;;;;;100.90;6.50;;;6.20;99.90;;;;;;5093917;28;20028;-51
2022/10/23 04:53:39;;;;;;;52.20;6.07;;;6.20;99.90;;;;;;5094035;28;20115;-50
2022/10/23 04:56:05;;;;;;;85.80;6.60;;;6.30;99.90;;;;;;5094152;28;20451;-52
2022/10/23 04:58:31;;;;;;;82.63;6.40;;;6.30;99.90;;;;;;5094286;28;20141;-50
2022/10/23 05:00:57;;;;;;;62.30;6.50;;;6.40;99.90;;;;;;5094072;28;20024;-51
2022/10/23 05:03:24;;;;;;;124.85;8.57;;;6.40;99.90;;;;;;5093886;28;20104;-51
2022/10/23 05:05:54;;;;;;;155.07;10.05;;;6.50;99.90;;;;;;5094238;28;20016;-51
2022/10/23 05:08:21;;;;;;;16.58;5.45;;;6.60;99.90;;;;;;5093616;28;20044;-51
2022/10/23 05:10:48;;;;;;;54.70;5.60;;;6.60;99.90;;;;;;5093894;28;20027;-50
2022/10/23 05:13:18;;;;;;;87.93;5.43;;;6.70;99.90;;;;;;5093078;28;20115;-50
2022/10/23 05:15:47;;;;;;;107.72;5.53;;;6.60;99.90;;;;;;5093088;28;20128;-51
2022/10/23 05:18:25;;;;;;;61.65;4.15;;;6.50;99.90;;;;;;5092877;28;20028;-50
2022/10/23 05:20:56;;;;;;;44.53;3.47;;;6.40;99.90;;;;;;5093150;28;20520;-50
2022/10/23 05:23:23;;;;;;;27.90;2.92;;;6.30;99.90;;;;;;5092808;28;20100;-50
2022/10/23 05:25:49;;;;;;;42.67;3.10;;;6.20;99.90;;;;;;5093111;28;20434;-50
2022/10/23 05:28:15;;;;;;;39.75;2.80;;;6.10;99.90;;;;;;5093373;28;20153;-51
2022/10/23 05:30:41;;;;;;;51.58;3.97;;;6.10;99.90;;;;;;5093681;28;20406;-50
2022/10/23 05:33:08;;;;;;;59.83;3.60;;;6.00;99.90;;;;;;5092142;28;20028;-51
2022/10/23 05:35:35;;;;;;;23.00;3.17;;;5.90;99.90;;;;;;5093508;28;20016;-52
2022/10/23 05:38:01;;;;;;;51.13;3.90;;;5.90;99.90;;;;;;5093257;28;20020;-51
2022/10/23 05:40:27;;;;;;;38.58;4.15;;;5.80;99.90;;;;;;5093313;28;20028;-51
2022/10/23 05:42:52;;;;;;;48.67;4.18;;;5.70;99.90;;;;;;5093461;28;20103;-50
2022/10/23 05:45:18;;;;;;;53.13;5.18;;;5.70;99.90;;;;;;5093356;28;20031;-51
2022/10/23 05:47:45;;;;;;;11.65;3.53;;;5.70;99.90;;;;;;5091680;28;20031;-50
2022/10/23 05:50:11;;;;;;;12.07;3.67;;;5.70;99.90;;;;;;5092554;28;20043;-53
2022/10/23 05:52:37;;;;;;;36.13;5.47;;;5.80;99.90;;;;;;5093296;28;20028;-52
2022/10/23 05:55:02;;;;;;;38.80;4.65;;;5.80;99.90;;;;;;5093157;28;20048;-53
2022/10/23 05:57:31;;;;;;;31.83;4.47;;;5.80;99.90;;;;;;5092701;28;20471;-50
2022/10/23 05:59:57;;;;;;;93.22;5.57;;;5.80;99.90;;;;;;5092878;28;20016;-52
2022/10/23 06:02:23;;;;;;;74.53;6.38;;;5.80;99.90;;;;;;5092751;28;20520;-51
2022/10/23 06:04:48;;;;;;;74.95;6.35;;;5.70;99.90;;;;;;5093092;28;20024;-50
2022/10/23 06:07:14;;;;;;;93.63;6.47;;;5.80;99.90;;;;;;5092626;28;20468;-54
2022/10/23 06:09:40;;;;;;;57.55;6.50;;;5.70;99.90;;;;;;5091383;28;20096;-51
2022/10/23 06:12:06;;;;;;;81.97;6.43;;;5.80;99.90;;;;;;5092643;28;20111;-52
2022/10/23 06:14:31;;;;;;;66.82;5.60;;;5.80;99.90;;;;;;5092703;28;20493;-52
2022/10/23 06:16:57;;;;;;;49.65;5.53;;;5.80;99.90;;;;;;5092449;28;20103;-51
2022/10/23 06:19:23;;;;;;;22.55;4.72;;;5.90;99.90;;;;;;5092380;28;20017;-49
2022/10/23 06:21:48;;;;;;;6.03;4.82;;;6.00;99.90;;;;;;5091892;28;20024;-55
2022/10/23 06:24:14;;;;;;;5.05;4.55;;;6.20;99.90;;;;;;5092192;28;20037;-50
2022/10/23 06:26:40;;;;;;;40.80;5.03;;;6.30;99.90;;;;;;5092129;28;20044;-55
2022/10/23 06:29:05;;;;;;;8.52;4.82;;;6.40;99.90;;;;;;5091761;28;20471;-52
2022/10/23 06:31:31;;;;;;;102.20;25.92;;;6.50;99.90;;;;;;5091756;28;20024;-54
2022/10/23 06:33:58;;;;;;;36.20;17.48;;;6.60;99.90;;;;;;5091570;28;20024;-54
2022/10/23 06:36:25;;;;;;;39.42;8.55;;;6.60;99.90;;;;;;5090329;28;20019;-52
2022/10/23 06:38:51;;;;;;;11.18;5.82;;;6.60;99.90;;;;;;5091597;28;20080;-53
2022/10/23 06:41:19;;;;;;;20.35;4.43;;;6.70;99.90;;;;;;5091438;28;20036;-52
2022/10/23 06:43:49;;;;;;;14.27;3.55;;;6.80;99.90;;;;;;5091550;28;20004;-52
2022/10/23 06:46:16;;;;;;;6.18;3.40;;;6.70;99.90;;;;;;5091745;28;20119;-53
2022/10/23 06:48:42;;;;;;;13.02;4.38;;;6.70;99.90;;;;;;5091365;28;20016;-54
2022/10/23 06:51:10;;;;;;;5.85;4.00;;;6.80;99.90;;;;;;5090932;28;20019;-51
2022/10/23 06:53:36;;;;;;;11.88;5.40;;;6.80;99.90;;;;;;5091680;28;20093;-53
2022/10/23 06:56:05;;;;;;;5.60;4.07;;;6.90;99.90;;;;;;5091403;28;20499;-51
2022/10/23 06:58:31;;;;;;;4.50;3.80;;;7.00;99.90;;;;;;5091668;28;20522;-52
2022/10/23 07:01:00;;;;;;;4.63;3.22;;;7.20;99.90;;;;;;5091840;28;20032;-50
2022/10/23 07:03:26;;;;;;;4.32;3.58;;;7.20;99.90;;;;;;5090953;28;20035;-55
2022/10/23 07:05:52;;;;;;;8.68;3.90;;;7.10;99.90;;;;;;5091535;28;20040;-52
2022/10/23 07:08:17;;;;;;;7.30;3.33;;;7.10;99.90;;;;;;5091568;28;20047;-52
2022/10/23 07:10:44;;;;;;;5.90;3.42;;;7.10;99.90;;;;;;5091834;28;20027;-51
2022/10/23 07:13:10;;;;;;;6.60;5.97;;;7.10;99.90;;;;;;5091752;28;20073;-53
2022/10/23 07:15:37;;;;;;;5.90;4.70;;;7.10;99.90;;;;;;5091435;28;20035;-52
2022/10/23 07:18:03;;;;;;;4.18;3.88;;;7.20;99.90;;;;;;5091627;28;20032;-52
2022/10/23 07:20:29;;;;;;;4.35;3.05;;;7.40;99.90;;;;;;5091632;28;20077;-52
2022/10/23 07:22:55;;;;;;;3.47;3.17;;;7.50;99.90;;;;;;5091812;28;20024;-51
2022/10/23 07:25:25;;;;;;;3.53;3.22;;;7.50;99.90;;;;;;5091379;28;20037;-56
2022/10/23 07:27:51;;;;;;;3.28;2.97;;;7.60;99.90;;;;;;5091211;28;20028;-51
2022/10/23 07:30:17;;;;;;;3.78;3.47;;;7.70;99.90;;;;;;5091494;28;20018;-51
2022/10/23 07:32:43;;;;;;;3.90;3.60;;;7.80;99.90;;;;;;5091687;28;20039;-50
2022/10/23 07:35:11;;;;;;;7.40;3.83;;;7.80;99.90;;;;;;5091357;28;20025;-51
2022/10/23 07:37:36;;;;;;;3.45;3.13;;;8.00;99.90;;;;;;5091511;28;20039;-52
2022/10/23 07:40:06;;;;;;;12.38;5.47;;;8.20;99.90;;;;;;5091593;28;20020;-51
2022/10/23 07:42:32;;;;;;;4.53;4.03;;;8.20;99.90;;;;;;5091474;28;20024;-52
2022/10/23 07:44:57;;;;;;;5.15;3.65;;;8.00;99.90;;;;;;5091519;28;20050;-51
2022/10/23 07:47:23;;;;;;;23.42;6.68;;;8.10;99.90;;;;;;5091118;28;20429;-54
2022/10/23 07:49:49;;;;;;;37.72;5.65;;;8.20;99.90;;;;;;5091367;28;20024;-52
2022/10/23 07:52:14;;;;;;;18.58;4.93;;;8.20;99.90;;;;;;5091334;28;20411;-53
2022/10/23 07:54:40;;;;;;;4.95;4.53;;;8.30;99.90;;;;;;5091315;28;20483;-51
2022/10/23 07:57:06;;;;;;;10.75;4.10;;;8.40;99.90;;;;;;5091085;28;20359;-52
2022/10/23 07:59:33;;;;;;;6.40;4.85;;;8.70;99.90;;;;;;5091369;28;20379;-51
2022/10/23 08:01:58;;;;;;;3.17;2.92;;;8.90;99.90;;;;;;5091421;28;20070;-52
2022/10/23 08:04:24;;;;;;;3.35;3.05;;;9.10;99.90;;;;;;5091105;28;20032;-55
2022/10/23 08:06:50;;;;;;;3.13;2.45;;;9.30;99.90;;;;;;5091107;28;20024;-54
2022/10/23 08:09:15;;;;;;;2.85;2.65;;;9.60;99.90;;;;;;5090974;28;20043;-51
2022/10/23 08:11:41;;;;;;;2.65;2.45;;;9.80;99.90;;;;;;5091319;28;20028;-52
2022/10/23 08:14:08;;;;;;;4.85;2.63;;;10.00;99.90;;;;;;5092455;28;20073;-53
2022/10/23 08:16:36;;;;;;;6.65;3.85;;;10.20;99.90;;;;;;5093627;28;20085;-51
2022/10/23 08:19:02;;;;;;;5.40;3.40;;;10.50;99.90;;;;;;5095104;28;20329;-51
2022/10/23 08:21:28;;;;;;;4.18;3.10;;;10.90;99.90;;;;;;5094920;28;20024;-51
2022/10/23 08:23:56;;;;;;;5.30;3.53;;;11.10;99.90;;;;;;5094831;28;20016;-52
2022/10/23 08:26:23;;;;;;;3.85;2.53;;;11.50;99.90;;;;;;5094488;28;20024;-54
2022/10/23 08:28:50;;;;;;;4.70;3.20;;;11.60;99.90;;;;;;5094621;28;20016;-51
2022/10/23 08:31:17;;;;;;;4.10;2.60;;;11.80;99.90;;;;;;5094638;28;20018;-53
2022/10/23 08:33:43;;;;;;;5.85;4.18;;;11.90;99.90;;;;;;5094651;28;20027;-51
2022/10/23 08:36:16;;;;;;;3.90;3.05;;;12.00;99.90;;;;;;5094374;28;20375;-52
2022/10/23 08:38:42;;;;;;;3.78;2.75;;;12.30;99.90;;;;;;5094467;28;20016;-52
2022/10/23 08:41:23;;;;;;;3.30;2.58;;;12.50;99.90;;;;;;5094479;28;20025;-52
2022/10/23 08:43:55;;;;;;;8.10;2.72;;;12.60;99.90;;;;;;5094612;28;20069;-51
2022/10/23 08:46:25;;;;;;;2.80;2.60;;;12.60;99.90;;;;;;5094102;28;20069;-50
2022/10/23 08:49:05;;;;;;;5.15;3.50;;;12.60;99.90;;;;;;5094514;28;20039;-52
2022/10/23 08:51:43;;;;;;;9.63;3.20;;;12.60;99.90;;;;;;5094665;28;20549;-51
2022/10/23 08:54:25;;;;;;;13.93;3.65;;;12.70;99.90;;;;;;5093863;28;20024;-50
2022/10/23 08:57:07;;;;;;;2.67;2.30;;;12.80;99.90;;;;;;5093878;28;20352;-54
2022/10/23 08:59:46;;;;;;;5.68;2.65;;;13.00;99.90;;;;;;5094184;28;20027;-52
2022/10/23 09:02:12;;;;;;;9.48;2.90;;;13.10;99.90;;;;;;5093977;28;20564;-51
2022/10/23 09:04:38;;;;;;;4.38;2.33;;;13.20;99.90;;;;;;5094065;28;20020;-51
2022/10/23 09:07:13;;;;;;;2.17;1.63;;;13.40;99.90;;;;;;5093697;28;20031;-50
2022/10/23 09:10:01;;;;;;;2.25;2.05;;;13.60;99.90;;;;;;5093681;28;20083;-53
2022/10/23 09:12:29;;;;;;;6.72;2.40;;;13.60;99.90;;;;;;5093869;28;20048;-52
2022/10/23 09:15:17;;;;;;;4.05;2.75;;;13.90;99.90;;;;;;5093699;28;20031;-52
2022/10/23 09:17:43;;;;;;;3.20;2.40;;;14.10;99.90;;;;;;5093686;28;20034;-52
2022/10/23 09:20:33;;;;;;;5.03;2.80;;;14.20;99.90;;;;;;5093584;28;20016;-51
2022/10/23 09:23:02;;;;;;;4.22;2.50;;;14.40;99.90;;;;;;5093646;28;20162;-54
2022/10/23 09:25:36;;;;;;;3.50;2.25;;;14.50;99.90;;;;;;5092556;28;20119;-51
2022/10/23 09:28:02;;;;;;;4.57;2.15;;;14.60;99.90;;;;;;5093439;28;20486;-51
2022/10/23 09:30:37;;;;;;;4.45;2.67;;;14.70;99.90;;;;;;5092829;28;20028;-52
2022/10/23 09:33:23;;;;;;;2.50;2.30;;;15.10;99.90;;;;;;5092031;28;20098;-51
2022/10/23 09:35:57;;;;;;;5.10;2.20;;;15.50;99.90;;;;;;5092544;28;20028;-52
2022/10/23 09:38:48;;;;;;;2.15;2.03;;;15.70;99.90;;;;;;5093488;28;20482;-54
2022/10/23 09:41:27;;;;;;;6.82;2.10;;;15.70;99.90;;;;;;5086901;28;20458;-51
2022/10/23 09:44:06;;;;;;;3.60;2.67;;;15.50;99.90;;;;;;5092303;28;20024;-51
2022/10/23 09:46:41;;;;;;;2.58;2.33;;;15.40;99.90;;;;;;5091432;28;20082;-51
2022/10/23 09:49:30;;;;;;;4.15;3.38;;;15.60;99.90;;;;;;5091545;28;20064;-54
2022/10/23 09:52:22;;;;;;;39.40;23.73;;;15.80;99.90;;;;;;5091419;28;20028;-52
2022/10/23 09:55:00;;;;;;;3.75;3.45;;;16.20;99.90;;;;;;5092310;28;20031;-51
2022/10/23 09:57:37;;;;;;;6.13;4.68;;;16.70;99.90;;;;;;5092369;28;20413;-51
2022/10/23 10:00:22;;;;;;;5.40;3.42;;;17.30;99.90;;;;;;5092645;28;20016;-52
2022/10/23 10:03:04;;;;;;;2.13;1.92;;;17.60;99.90;;;;;;5072329;28;20114;-54
2022/10/23 10:05:33;;;;;;;1.70;1.60;;;18.40;99.60;;;;;;5072204;28;20043;-52
2022/10/23 10:08:18;;;;;;;2.55;1.48;;;19.80;97.90;;;;;;5072113;28;20048;-55
2022/10/23 10:10:52;;;;;;;2.22;2.03;;;20.50;95.90;;;;;;5077175;28;20115;-53
2022/10/23 10:13:35;;;;;;;10.63;3.92;;;20.60;94.70;;;;;;5092352;28;20685;-53
2022/10/23 10:16:36;;;;;;;1.85;1.67;;;20.90;94.00;;;;;;5092567;28;20059;-55
2022/10/23 10:19:21;;;;;;;3.40;1.85;;;21.10;93.00;;;;;;5092375;28;20039;-51
2022/10/23 10:22:18;;;;;;;8.43;3.28;;;20.70;92.70;;;;;;5091901;28;20028;-51
2022/10/23 10:25:02;;;;;;;4.97;2.15;;;21.50;91.60;;;;;;5092605;28;20455;-51
2022/10/23 10:27:46;;;;;;;1.63;1.23;;;21.20;92.50;;;;;;5092397;28;20422;-54
2022/10/23 10:30:17;;;;;;;1.63;1.08;;;21.20;91.50;;;;;;5092269;28;20028;-52
2022/10/23 10:32:53;;;;;;;5.18;1.60;;;21.20;91.80;;;;;;5091508;28;20039;-55
2022/10/23 10:35:22;;;;;;;2.25;1.20;;;21.00;91.10;;;;;;5091201;28;20028;-51
2022/10/23 10:38:03;;;;;;;11.80;6.10;;;20.80;92.30;;;;;;5090943;28;20161;-53
2022/10/23 10:40:40;;;;;;;4.88;1.67;;;20.50;92.10;;;;;;5091055;28;20035;-54
2022/10/23 10:43:13;;;;;;;3.67;2.05;;;21.20;91.40;;;;;;5090860;28;20416;-56
2022/10/23 10:45:56;;;;;;;1.92;1.60;;;21.10;91.00;;;;;;5091357;28;20021;-50
2022/10/23 10:52:00;;;;;;;3.50;2.83;;;20.90;90.20;;;;;;5091776;28;20254;-51
2022/10/23 10:54:37;;;;;;;4.90;3.40;;;20.50;91.30;;;;;;5091139;28;20028;-51
2022/10/23 10:57:11;;;;;;;3.40;2.13;;;20.40;92.00;;;;;;5092120;28;20408;-51
2022/10/23 10:59:41;;;;;;;5.63;2.40;;;20.50;92.20;;;;;;5092079;28;20036;-51
2022/10/23 11:02:18;;;;;;;3.90;2.15;;;20.30;92.30;;;;;;5091770;28;20020;-50
2022/10/23 11:04:53;;;;;;;10.18;1.70;;;20.60;91.20;;;;;;5091842;28;20049;-51
2022/10/23 11:07:24;;;;;;;6.75;2.10;;;21.90;89.10;;;;;;5091908;28;20688;-51
2022/10/23 11:09:50;;;;;;;6.13;2.35;;;21.30;89.60;;;;;;5090431;28;20051;-52
2022/10/23 11:12:22;;;;;;;3.15;2.20;;;21.90;88.60;;;;;;5091376;28;20382;-50
2022/10/23 11:14:49;;;;;;;5.38;1.80;;;22.60;87.30;;;;;;5091733;28;20024;-52
2022/10/23 11:17:33;;;;;;;3.67;2.05;;;23.00;83.40;;;;;;5091634;28;20113;-51
2022/10/23 11:20:19;;;;;;;3.38;1.83;;;23.90;81.00;;;;;;5091844;28;20008;-50
2022/10/23 11:23:06;;;;;;;6.40;2.00;;;24.40;79.30;;;;;;5091504;28;20185;-53
2022/10/23 11:26:00;;;;;;;4.03;2.28;;;25.50;78.40;;;;;;5091591;28;20035;-51
2022/10/23 11:28:44;;;;;;;5.95;2.28;;;25.00;75.60;;;;;;5090282;28;20356;-53
2022/10/23 11:31:31;;;;;;;8.57;2.22;;;25.20;75.00;;;;;;5059663;28;20044;-56
2022/10/23 11:34:05;;;;;;;3.83;2.70;;;25.30;73.60;;;;;;5061481;28;20034;-52
2022/10/23 11:36:45;;;;;;;5.53;2.83;;;24.90;73.00;;;;;;5067429;28;20033;-52
2022/10/23 11:39:19;;;;;;;3.03;2.17;;;25.70;71.90;;;;;;5072338;28;20024;-52
2022/10/23 11:41:57;;;;;;;8.90;2.55;;;25.70;72.50;;;;;;5070173;28;20028;-54
2022/10/23 11:44:37;;;;;;;3.00;2.55;;;25.40;71.00;;;;;;5060806;28;20125;-51
2022/10/23 11:47:24;;;;;;;9.15;2.72;;;25.00;70.60;;;;;;5079934;28;20020;-51
2022/10/23 11:49:49;;;;;;;2.53;2.20;;;25.50;72.10;;;;;;5063767;28;22145;-54
2022/10/23 11:52:23;;;;;;;5.90;1.85;;;26.30;69.90;;;;;;5083578;28;20513;-52
2022/10/23 11:55:01;;;;;;;3.22;1.70;;;26.00;70.00;;;;;;5069217;28;20025;-55
2022/10/23 11:57:26;;;;;;;9.05;1.63;;;26.50;69.70;;;;;;5072169;28;20507;-53
2022/10/23 11:59:55;;;;;;;6.57;1.40;;;26.60;66.70;;;;;;5064456;28;20059;-53
2022/10/23 12:02:30;;;;;;;1.70;1.17;;;26.10;67.00;;;;;;5064163;28;20732;-55
2022/10/23 12:05:00;;;;;;;2.80;1.20;;;26.60;67.90;;;;;;5084886;28;20467;-54
2022/10/23 12:07:33;;;;;;;2.30;1.33;;;26.70;65.90;;;;;;5064737;28;20094;-54
2022/10/23 12:10:04;;;;;;;3.28;1.08;;;26.20;66.10;;;;;;5080981;28;20066;-54
2022/10/23 12:12:31;;;;;;;3.28;1.20;;;26.60;65.70;;;;;;5083600;28;20043;-55
2022/10/23 12:15:13;;;;;;;6.68;1.20;;;26.40;65.60;;;;;;5082391;28;20032;-55
2022/10/23 12:17:41;;;;;;;1.48;1.33;;;26.30;65.60;;;;;;5064364;28;20028;-54
2022/10/23 12:20:09;;;;;;;2.95;1.67;;;26.10;67.30;;;;;;5064673;28;20522;-55
2022/10/23 12:23:12;;;;;;;12.38;2.00;;;25.60;69.90;;;;;;5064066;28;22532;-56
2022/10/23 12:26:09;;;;;;;5.07;1.17;;;25.70;71.40;;;;;;5063352;28;20051;-53
2022/10/23 12:28:58;;;;;;;4.10;1.40;;;25.70;69.30;;;;;;5059168;28;20422;-55
2022/10/23 12:31:42;;;;;;;3.50;1.48;;;25.60;67.00;;;;;;5063363;28;20036;-51
2022/10/23 12:34:36;;;;;;;1.38;1.10;;;25.40;67.30;;;;;;5064074;28;20363;-51
2022/10/23 12:37:11;;;;;;;3.25;1.40;;;24.80;65.80;;;;;;5064117;28;20523;-51
2022/10/23 12:39:38;;;;;;;1.40;1.30;;;24.40;69.10;;;;;;5063541;28;20029;-53
2022/10/23 12:42:11;;;;;;;2.78;1.55;;;23.60;69.20;;;;;;5063747;28;20028;-52
2022/10/23 12:44:36;;;;;;;1.60;1.50;;;23.60;70.70;;;;;;5063628;28;20029;-52
2022/10/23 12:47:03;;;;;;;2.55;2.08;;;23.70;71.70;;;;;;5063387;28;20046;-52
2022/10/23 12:49:32;;;;;;;1.90;1.70;;;23.60;72.90;;;;;;5063471;28;20024;-54
2022/10/23 12:51:59;;;;;;;2.90;1.58;;;23.10;72.40;;;;;;5063202;28;20029;-55
2022/10/23 12:54:26;;;;;;;5.07;1.80;;;22.50;75.30;;;;;;5061232;28;20520;-54
2022/10/23 12:56:53;;;;;;;9.50;2.75;;;22.60;76.60;;;;;;5062873;28;20132;-52
2022/10/23 12:59:36;;;;;;;3.45;1.88;;;22.30;76.80;;;;;;5063210;28;20107;-55
2022/10/23 13:02:23;;;;;;;7.57;1.85;;;22.90;76.90;;;;;;5064248;28;20024;-52
2022/10/23 13:04:51;;;;;;;5.10;1.35;;;23.80;74.60;;;;;;5065576;28;20082;-53
2022/10/23 13:07:20;;;;;;;5.18;1.42;;;24.70;71.90;;;;;;5062335;28;20040;-55
2022/10/23 13:09:46;;;;;;;1.85;1.45;;;25.30;69.80;;;;;;5063020;28;20376;-56
2022/10/23 13:12:23;;;;;;;2.63;1.70;;;24.90;69.60;;;;;;5067532;28;20039;-54
2022/10/23 13:15:15;;;;;;;3.50;1.30;;;25.00;68.70;;;;;;5077554;28;20040;-53
2022/10/23 13:17:47;;;;;;;1.85;1.40;;;25.50;68.10;;;;;;5062815;28;20043;-56